Atlantic, Pennsylvania
Current Conditions -  °F | °C
As of 11:01 PM on Sunday 21 Dec 2014 (Local Time) from KGKJ Reporting Station
Scattered Clouds Scattered Clouds  
Wind Chill: 28°   Ceiling: Unl
Heat Index: 28°   Visibility: 10mi
Dew Point: 21°   Wind: 0mph
Humidity: 75%   Direction: NA
Pressure: 30.2"   Gusts: NA
Location:  41.5°N, 80.33°W
Report Text: KGKJ 220401Z AUTO 00000KT 10SM SCT018 M02/M06 A3020 RMK AO2 T10221061 TSNO $
Loading
Personal Weather Stations






























Interactive Weather Map New forecast layout! Learn more

10-Day Weather Forecast

Advertisements
Track Severe Weather on mobile